Time;durP1;ratioP1;P1;durP2;ratioP2;P2;SDS_P1;SDS_P2;PMS_P1;PMS_P2;Temp;Humidity;BMP_temperature;BMP_pressure;BME280_temperature;BME280_humidity;BME280_pressure;Samples;Min_cycle;Max_cycle;Signal;HPM_P1;HPM_P2
2021/06/09 00:00:20;;;;;;;;;;;;;;;12.37;100.00;101470.88;5093564;28;19924;-68
2021/06/09 00:02:46;;;;;;;;;;;;;;;12.25;100.00;101469.09;5093509;28;19935;-68
2021/06/09 00:05:12;;;;;;;;;;;;;;;12.14;100.00;101461.75;5093493;28;19924;-68
2021/06/09 00:07:37;;;;;;;;;;;;;;;12.07;100.00;101469.53;5093265;28;19924;-68
2021/06/09 00:10:06;;;;;;;;;;;;;;;12.05;100.00;101466.03;5093566;28;19924;-68
2021/06/09 00:12:33;;;;;;;;;;;;;;;11.96;100.00;101466.72;5075153;28;19951;-68
2021/06/09 00:14:59;;;;;;;;;;;;;;;11.86;100.00;101467.38;5093390;28;20093;-68
2021/06/09 00:17:24;;;;;;;;;;;;;;;11.84;100.00;101463.94;5092792;28;20341;-67
2021/06/09 00:19:50;;;;;;;;;;;;;;;11.82;100.00;101465.03;5093196;28;20314;-68
2021/06/09 00:22:16;;;;;;;;;;;;;;;11.74;100.00;101462.88;5093267;28;19928;-68
2021/06/09 00:24:44;;;;;;;;;;;;;;;11.71;100.00;101466.69;5092760;28;19974;-68
2021/06/09 00:27:11;;;;;;;;;;;;;;;11.62;100.00;101466.50;5093100;28;20387;-68
2021/06/09 00:29:37;;;;;;;;;;;;;;;11.52;100.00;101464.47;5091550;28;20349;-68
2021/06/09 00:32:03;;;;;;;;;;;;;;;11.46;100.00;101474.94;5093152;28;19949;-68
2021/06/09 00:34:28;;;;;;;;;;;;;;;11.41;100.00;101475.28;5092758;28;19955;-67
2021/06/09 00:36:54;;;;;;;;;;;;;;;11.39;100.00;101472.63;5092405;28;20338;-67
2021/06/09 00:39:20;;;;;;;;;;;;;;;11.40;100.00;101476.25;5092817;28;19931;-68
2021/06/09 00:41:46;;;;;;;;;;;;;;;11.41;100.00;101471.66;5092474;28;19971;-67
2021/06/09 00:44:14;;;;;;;;;;;;;;;11.39;100.00;101474.50;5092617;28;19990;-68
2021/06/09 00:46:40;;;;;;;;;;;;;;;11.35;100.00;101481.16;5092635;28;19931;-67
2021/06/09 00:49:06;;;;;;;;;;;;;;;11.29;100.00;101484.28;5092272;28;19931;-67
2021/06/09 00:51:32;;;;;;;;;;;;;;;11.20;100.00;101481.28;5092733;28;19957;-67
2021/06/09 00:54:01;;;;;;;;;;;;;;;11.15;100.00;101480.72;5091663;28;19924;-67
2021/06/09 00:56:28;;;;;;;;;;;;;;;11.09;100.00;101480.28;5090666;28;19924;-68
2021/06/09 00:58:54;;;;;;;;;;;;;;;11.04;100.00;101477.94;5092425;28;19924;-67
2021/06/09 01:01:22;;;;;;;;;;;;;;;10.98;100.00;101481.06;5092543;28;19969;-68
2021/06/09 01:03:48;;;;;;;;;;;;;;;10.93;100.00;101483.22;5091015;28;19924;-68
2021/06/09 01:06:14;;;;;;;;;;;;;;;10.92;100.00;101478.81;5092421;28;19966;-68
2021/06/09 01:08:42;;;;;;;;;;;;;;;10.86;100.00;101480.09;5092299;28;19924;-67
2021/06/09 01:11:09;;;;;;;;;;;;;;;10.80;100.00;101481.41;5091995;28;19985;-67
2021/06/09 01:13:35;;;;;;;;;;;;;;;10.73;100.00;101477.38;5091994;28;20005;-67
2021/06/09 01:16:01;;;;;;;;;;;;;;;10.67;100.00;101480.50;5092153;28;19928;-67
2021/06/09 01:18:28;;;;;;;;;;;;;;;10.72;100.00;101479.22;5091923;28;19932;-68
2021/06/09 01:20:56;;;;;;;;;;;;;;;10.71;100.00;101479.31;5092180;28;20375;-67
2021/06/09 01:23:23;;;;;;;;;;;;;;;10.61;100.00;101483.66;5091823;28;20015;-67
2021/06/09 01:25:49;;;;;;;;;;;;;;;10.53;100.00;101478.78;5091871;28;19974;-67
2021/06/09 01:28:15;;;;;;;;;;;;;;;10.49;100.00;101482.66;5090991;28;19993;-67
2021/06/09 01:30:41;;;;;;;;;;;;;;;10.44;100.00;101482.97;5091474;28;19928;-67
2021/06/09 01:33:08;;;;;;;;;;;;;;;10.43;100.00;101486.66;5091836;28;20426;-67
2021/06/09 01:35:34;;;;;;;;;;;;;;;10.38;100.00;101486.97;5090506;28;19924;-68
2021/06/09 01:38:00;;;;;;;;;;;;;;;10.32;100.00;101486.50;5091884;28;19982;-68
2021/06/09 01:40:28;;;;;;;;;;;;;;;10.27;100.00;101480.50;5091984;28;20564;-68
2021/06/09 01:42:57;;;;;;;;;;;;;;;10.25;100.00;101486.06;5091777;28;19924;-67
2021/06/09 01:45:26;;;;;;;;;;;;;;;10.25;100.00;101483.34;5091917;28;20372;-68
2021/06/09 01:47:52;;;;;;;;;;;;;;;10.25;100.00;101483.34;5091356;28;19928;-67
2021/06/09 01:50:18;;;;;;;;;;;;;;;10.19;100.00;101476.47;5092010;28;19924;-67
2021/06/09 01:52:44;;;;;;;;;;;;;;;10.11;100.00;101476.13;5091748;28;19931;-67
2021/06/09 01:55:11;;;;;;;;;;;;;;;10.06;100.00;101489.09;5091650;28;20015;-67
2021/06/09 01:57:38;;;;;;;;;;;;;;;10.00;100.00;101487.69;5091622;28;19967;-67
2021/06/09 02:00:06;;;;;;;;;;;;;;;9.95;100.00;101481.69;5074355;28;19978;-67
2021/06/09 02:02:38;;;;;;;;;;;;;;;9.91;100.00;101485.59;5095890;28;19930;-67
2021/06/09 02:05:05;;;;;;;;;;;;;;;9.88;100.00;101485.81;5093928;28;19924;-67
2021/06/09 02:07:34;;;;;;;;;;;;;;;9.83;100.00;101482.53;5095927;28;19963;-67
2021/06/09 02:10:00;;;;;;;;;;;;;;;9.84;100.00;101479.69;5095628;28;20347;-67
2021/06/09 02:12:26;;;;;;;;;;;;;;;9.81;100.00;101476.34;5095830;28;19981;-67
2021/06/09 02:14:53;;;;;;;;;;;;;;;9.79;100.00;101476.41;5094300;28;19928;-67
2021/06/09 02:17:19;;;;;;;;;;;;;;;9.75;100.00;101480.31;5095364;28;19928;-67
2021/06/09 02:19:44;;;;;;;;;;;;;;;9.69;100.00;101478.03;5094403;28;19977;-67
2021/06/09 02:22:10;;;;;;;;;;;;;;;9.64;100.00;101472.03;5094224;28;19931;-67
2021/06/09 02:24:36;;;;;;;;;;;;;;;9.62;100.00;101477.53;5095165;28;19928;-67
2021/06/09 02:27:02;;;;;;;;;;;;;;;9.58;100.00;101472.41;5095507;28;20030;-67
2021/06/09 02:29:28;;;;;;;;;;;;;;;9.54;100.00;101478.03;5095286;28;19932;-67
2021/06/09 02:31:55;;;;;;;;;;;;;;;9.48;100.00;101470.28;5095301;28;19935;-67
2021/06/09 02:34:22;;;;;;;;;;;;;;;9.49;100.00;101472.03;5095020;28;19928;-67
2021/06/09 02:36:49;;;;;;;;;;;;;;;9.53;100.00;101476.28;5095370;28;19924;-67
2021/06/09 02:39:15;;;;;;;;;;;;;;;9.55;100.00;101471.66;5095108;28;20444;-67
2021/06/09 02:41:40;;;;;;;;;;;;;;;9.57;100.00;101470.66;5095055;28;19924;-67
2021/06/09 02:44:06;;;;;;;;;;;;;;;9.51;100.00;101470.13;5095135;28;20398;-67
2021/06/09 02:46:34;;;;;;;;;;;;;;;9.46;100.00;101480.38;5094922;28;19924;-67
2021/06/09 02:49:03;;;;;;;;;;;;;;;9.47;100.00;101484.81;5095049;28;20213;-67
2021/06/09 02:51:31;;;;;;;;;;;;;;;9.45;100.00;101478.63;5094782;28;19970;-67
2021/06/09 02:54:01;;;;;;;;;;;;;;;9.53;100.00;101476.28;5094995;28;20357;-67
2021/06/09 02:56:32;;;;;;;;;;;;;;;9.61;100.00;101478.50;5094633;28;19962;-67
2021/06/09 02:59:03;;;;;;;;;;;;;;;9.58;100.00;101472.41;5094547;28;19924;-68
2021/06/09 03:01:32;;;;;;;;;;;;;;;9.68;100.00;101473.56;5094570;28;19959;-68
2021/06/09 03:04:02;;;;;;;;;;;;;;;9.63;100.00;101475.69;5094249;28;19974;-67
2021/06/09 03:06:36;;;;;;;;;;;;;;;9.60;100.00;101470.47;5094766;28;19924;-67
2021/06/09 03:09:04;;;;;;;;;;;;;;;9.58;100.00;101472.41;5093358;28;20399;-67
2021/06/09 03:11:33;;;;;;;;;;;;;;;9.56;100.00;101469.81;5094678;28;19928;-67
2021/06/09 03:14:04;;;;;;;;;;;;;;;9.58;100.00;101476.00;5094401;28;20303;-67
2021/06/09 03:16:33;;;;;;;;;;;;;;;9.60;100.00;101475.91;5094520;28;20375;-67
2021/06/09 03:19:02;;;;;;;;;;;;;;;9.61;100.00;101472.22;5093962;28;19928;-67
2021/06/09 03:21:35;;;;;;;;;;;;;;;9.78;100.00;101474.69;5094132;28;20379;-67
2021/06/09 03:24:06;;;;;;;;;;;;;;;9.89;100.00;101472.13;5093841;28;19928;-68
2021/06/09 03:26:38;;;;;;;;;;;;;;;9.95;100.00;101470.00;5094245;28;19924;-68
2021/06/09 03:29:18;;;;;;;;;;;;;;;9.99;100.00;101468.81;5094070;28;19928;-67
2021/06/09 03:31:46;;;;;;;;;;;;;;;10.06;100.00;101456.56;5094417;28;19931;-67
2021/06/09 03:34:13;;;;;;;;;;;;;;;10.15;100.00;101464.06;5093834;28;19931;-68
2021/06/09 03:36:41;;;;;;;;;;;;;;;10.21;100.00;101454.69;5093689;28;19970;-68
2021/06/09 03:39:08;;;;;;;;;;;;;;;10.25;100.00;101461.63;5093928;28;20020;-67
2021/06/09 03:41:36;;;;;;;;;;;;;;;10.31;100.00;101457.63;5092837;28;19929;-68
2021/06/09 03:44:03;;;;;;;;;;;;;;;10.38;100.00;101461.66;5093766;28;19924;-68
2021/06/09 03:46:29;;;;;;;;;;;;;;;10.45;100.00;101453.97;5093723;28;19930;-68
2021/06/09 03:48:56;;;;;;;;;;;;;;;10.52;100.00;101448.03;5093420;28;19939;-68
2021/06/09 03:51:24;;;;;;;;;;;;;;;10.56;100.00;101445.97;5093761;28;19931;-68
2021/06/09 03:53:52;;;;;;;;;;;;;;;10.66;100.00;101438.94;5093213;28;19958;-68
2021/06/09 03:56:18;;;;;;;;;;;;;;;10.81;100.00;101450.53;5093928;28;20288;-68
2021/06/09 03:58:45;;;;;;;;;;;;;;;10.90;100.00;101446.28;5091662;28;19924;-68
2021/06/09 04:01:12;;;;;;;;;;;;;;;11.03;100.00;101451.72;5093241;28;19924;-68
2021/06/09 04:03:39;;;;;;;;;;;;;;;11.14;100.00;101448.22;5093015;28;19950;-69
2021/06/09 04:06:06;;;;;;;;;;;;;;;11.27;100.00;101456.38;5093041;28;19977;-68
2021/06/09 04:08:33;;;;;;;;;;;;;;;11.39;100.00;101450.03;5091953;28;20650;-68
2021/06/09 04:11:01;;;;;;;;;;;;;;;11.52;100.00;101448.16;5090907;28;19981;-68
2021/06/09 04:13:28;;;;;;;;;;;;;;;11.68;100.00;101444.31;5093083;28;19938;-68
2021/06/09 04:15:54;;;;;;;;;;;;;;;11.81;100.00;101453.28;5088410;28;19924;-67
2021/06/09 04:18:21;;;;;;;;;;;;;;;11.96;100.00;101440.41;5092881;28;19931;-67
2021/06/09 04:20:47;;;;;;;;;;;;;;;12.10;100.00;101442.06;5092242;28;19928;-67
2021/06/09 04:23:13;;;;;;;;;;;;;;;12.26;100.00;101449.06;5092546;28;20299;-67
2021/06/09 04:25:39;;;;;;;;;;;;;;;12.43;100.00;101450.50;5091235;28;19931;-67
2021/06/09 04:28:09;;;;;;;;;;;;;;;12.58;100.00;101452.00;5092619;28;19924;-67
2021/06/09 04:30:36;;;;;;;;;;;;;;;12.75;100.00;101447.97;5092301;28;19970;-67
2021/06/09 04:33:04;;;;;;;;;;;;;;;12.97;100.00;101454.41;5092337;28;19977;-67
2021/06/09 04:35:35;;;;;;;;;;;;;;;13.18;100.00;101449.09;5092686;28;20345;-67
2021/06/09 04:38:01;;;;;;;;;;;;;;;13.36;100.00;101450.38;5092516;28;19932;-67
2021/06/09 04:40:27;;;;;;;;;;;;;;;13.53;100.00;101443.50;5092379;28;19981;-67
2021/06/09 04:42:54;;;;;;;;;;;;;;;13.74;100.00;101442.75;5092513;28;20387;-67
2021/06/09 04:45:22;;;;;;;;;;;;;;;13.93;100.00;101446.66;5091290;28;19951;-66
2021/06/09 04:47:48;;;;;;;;;;;;;;;14.10;100.00;101435.19;5089947;28;19948;-67
2021/06/09 04:50:16;;;;;;;;;;;;;;;14.32;100.00;101447.00;5092178;28;20036;-67
2021/06/09 04:52:41;;;;;;;;;;;;;;;14.53;100.00;101442.41;5091958;28;19924;-67
2021/06/09 04:55:08;;;;;;;;;;;;;;;14.77;100.00;101441.28;5092330;28;20399;-66
2021/06/09 04:57:34;;;;;;;;;;;;;;;15.01;100.00;101453.81;5091877;28;20323;-67
2021/06/09 05:00:00;;;;;;;;;;;;;;;15.20;100.00;101442.94;5092529;28;20322;-67
2021/06/09 05:02:27;;;;;;;;;;;;;;;15.42;100.00;101446.50;5090084;28;20504;-67
2021/06/09 05:04:53;;;;;;;;;;;;;;;15.61;100.00;101447.56;5090949;28;20350;-67
2021/06/09 05:07:19;;;;;;;;;;;;;;;15.80;100.00;101446.72;5092095;28;19931;-66
2021/06/09 05:09:44;;;;;;;;;;;;;;;15.94;100.00;101442.72;5091912;28;19924;-66
2021/06/09 05:12:15;;;;;;;;;;;;;;;16.03;100.00;101437.28;5092176;28;20011;-67
2021/06/09 05:14:44;;;;;;;;;;;;;;;16.15;100.00;101434.38;5091457;28;19925;-66
2021/06/09 05:17:10;;;;;;;;;;;;;;;16.30;100.00;101434.81;5090377;28;20019;-66
2021/06/09 05:19:39;;;;;;;;;;;;;;;16.44;100.00;101428.91;5090641;28;20015;-67
2021/06/09 05:22:06;;;;;;;;;;;;;;;16.62;100.00;101436.38;5091443;28;19947;-67
2021/06/09 05:24:33;;;;;;;;;;;;;;;16.75;100.00;101428.69;5090328;28;20311;-67
2021/06/09 05:26:59;;;;;;;;;;;;;;;16.93;100.00;101431.56;5091731;28;19951;-67
2021/06/09 05:29:26;;;;;;;;;;;;;;;17.05;100.00;101424.03;5090637;28;19977;-68
2021/06/09 05:31:53;;;;;;;;;;;;;;;17.18;100.00;101429.16;5089448;28;19962;-68
2021/06/09 05:34:19;;;;;;;;;;;;;;;17.32;100.00;101430.56;5090496;28;19978;-68
2021/06/09 05:36:47;;;;;;;;;;;;;;;17.46;100.00;101437.41;5087479;28;19924;-69
2021/06/09 05:39:14;;;;;;;;;;;;;;;17.59;100.00;101437.06;5079922;28;20047;-68
2021/06/09 05:41:40;;;;;;;;;;;;;;;17.74;100.00;101436.38;5088018;28;20039;-69
2021/06/09 05:44:06;;;;;;;;;;;;;;;17.91;100.00;101437.41;5089642;28;20387;-68
2021/06/09 05:46:32;;;;;;;;;;;;;;;18.20;100.00;101430.84;5070971;28;19969;-68
2021/06/09 05:48:57;;;;;;;;;;;;;;;18.45;100.00;101431.03;5090835;28;19939;-68
2021/06/09 05:51:23;;;;;;;;;;;;;;;18.65;100.00;101431.75;5090774;28;19924;-68
2021/06/09 05:53:54;;;;;;;;;;;;;;;18.65;100.00;101430.84;5090319;28;19928;-69
2021/06/09 05:56:20;;;;;;;;;;;;;;;18.90;100.00;101430.03;5091343;28;19925;-68
2021/06/09 05:58:46;;;;;;;;;;;;;;;19.18;100.00;101426.22;5090269;28;19925;-68
2021/06/09 06:01:12;;;;;;;;;;;;;;;19.19;100.00;101438.97;5090276;28;19931;-68
2021/06/09 06:03:39;;;;;;;;;;;;;;;19.62;100.00;101438.97;5091233;28;19932;-68
2021/06/09 06:06:06;;;;;;;;;;;;;;;19.81;100.00;101433.19;5090936;28;19925;-68
2021/06/09 06:08:32;;;;;;;;;;;;;;;20.33;100.00;101433.97;5091658;28;20387;-68
2021/06/09 06:11:03;;;;;;;;;;;;;;;20.60;100.00;101432.75;5090948;28;19989;-69
2021/06/09 06:13:29;;;;;;;;;;;;;;;21.15;97.54;101441.28;5072916;28;19931;-69
2021/06/09 06:15:55;;;;;;;;;;;;;;;21.51;92.37;101440.81;5089707;28;19950;-67
2021/06/09 06:18:28;;;;;;;;;;;;;;;21.84;93.12;101435.16;5090613;28;19932;-66
2021/06/09 06:20:54;;;;;;;;;;;;;;;22.59;89.90;101424.41;5091106;28;20559;-66
2021/06/09 06:23:21;;;;;;;;;;;;;;;22.78;78.45;101423.00;5090708;28;19924;-66
2021/06/09 06:25:47;;;;;;;;;;;;;;;22.78;77.48;101426.63;5091320;28;19924;-67
2021/06/09 06:28:14;;;;;;;;;;;;;;;23.00;76.67;101426.75;5090881;28;19924;-66
2021/06/09 06:30:41;;;;;;;;;;;;;;;23.21;74.34;101421.34;5091005;28;19924;-66
2021/06/09 06:33:07;;;;;;;;;;;;;;;23.85;72.57;101425.34;5090504;28;19928;-66
2021/06/09 06:35:33;;;;;;;;;;;;;;;24.47;68.13;101419.38;5090901;28;20433;-66
2021/06/09 06:37:59;;;;;;;;;;;;;;;24.48;64.24;101432.16;5090848;28;19931;-67
2021/06/09 06:40:28;;;;;;;;;;;;;;;24.74;64.49;101431.56;5090704;28;19955;-67
2021/06/09 06:42:54;;;;;;;;;;;;;;;25.10;60.42;101430.53;5090729;28;19924;-67
2021/06/09 06:45:22;;;;;;;;;;;;;;;25.44;63.37;101441.84;5090774;28;19963;-64
2021/06/09 06:47:49;;;;;;;;;;;;;;;25.26;54.58;101436.84;5094470;28;20035;-64
2021/06/09 06:50:17;;;;;;;;;;;;;;;25.49;56.58;101431.81;5092882;28;19924;-65
2021/06/09 06:52:44;;;;;;;;;;;;;;;25.71;55.13;101427.00;5094473;28;19966;-65
2021/06/09 06:55:11;;;;;;;;;;;;;;;26.02;54.38;101433.09;5093499;28;20379;-66
2021/06/09 06:57:37;;;;;;;;;;;;;;;26.40;53.20;101430.63;5093968;28;19931;-65
2021/06/09 07:00:06;;;;;;;;;;;;;;;26.42;53.11;101438.75;5092399;28;19982;-65
2021/06/09 07:02:34;;;;;;;;;;;;;;;26.56;50.64;101431.25;5091612;28;19924;-65
2021/06/09 07:05:02;;;;;;;;;;;;;;;26.82;51.30;101424.84;5093767;28;20303;-66
2021/06/09 07:07:27;;;;;;;;;;;;;;;26.81;50.89;101434.28;5092543;28;19927;-65
2021/06/09 07:09:53;;;;;;;;;;;;;;;27.08;50.06;101437.00;5093319;28;19967;-66
2021/06/09 07:12:19;;;;;;;;;;;;;;;27.51;46.19;101430.03;5094198;28;19924;-66
2021/06/09 07:14:45;;;;;;;;;;;;;;;27.89;45.44;101435.66;5093359;28;19978;-66
2021/06/09 07:17:11;;;;;;;;;;;;;;;27.95;44.83;101441.44;5093990;28;19967;-67
2021/06/09 07:19:39;;;;;;;;;;;;;;;27.81;44.38;101441.50;5092559;28;19967;-66
2021/06/09 07:22:06;;;;;;;;;;;;;;;27.97;44.32;101440.13;5093193;28;19924;-66
2021/06/09 07:24:32;;;;;;;;;;;;;;;28.13;42.83;101443.47;5093727;28;19931;-67
2021/06/09 07:26:59;;;;;;;;;;;;;;;28.05;42.96;101444.63;5093330;28;19928;-68
2021/06/09 07:29:27;;;;;;;;;;;;;;;28.19;42.26;101443.47;5093974;28;19927;-68
2021/06/09 07:31:54;;;;;;;;;;;;;;;28.43;41.69;101440.06;5092329;28;20345;-69
2021/06/09 07:34:20;;;;;;;;;;;;;;;28.68;41.35;101434.53;5093284;28;19971;-68
2021/06/09 07:36:50;;;;;;;;;;;;;;;28.38;41.86;101440.72;5093599;28;20376;-67
2021/06/09 07:39:19;;;;;;;;;;;;;;;28.55;40.34;101435.44;5092446;28;19951;-68
2021/06/09 07:41:45;;;;;;;;;;;;;;;28.79;40.88;101442.13;5092562;28;19924;-69
2021/06/09 07:44:12;;;;;;;;;;;;;;;28.58;41.81;101439.72;5092801;28;19924;-69
2021/06/09 07:46:39;;;;;;;;;;;;;;;28.47;39.66;101433.78;5092220;28;19939;-66
2021/06/09 07:49:07;;;;;;;;;;;;;;;28.07;39.71;101436.88;5093445;28;19931;-66
2021/06/09 07:51:34;;;;;;;;;;;;;;;27.80;41.42;101433.34;5093067;28;19979;-66
2021/06/09 07:54:01;;;;;;;;;;;;;;;27.96;40.17;101438.41;5093021;28;20334;-66
2021/06/09 07:56:31;;;;;;;;;;;;;;;28.35;40.09;101436.44;5093044;28;19928;-68
2021/06/09 07:58:57;;;;;;;;;;;;;;;28.54;41.29;101430.94;5090335;28;19935;-68
2021/06/09 08:01:23;;;;;;;;;;;;;;;28.86;39.55;101428.97;5093117;28;20371;-68
2021/06/09 08:03:50;;;;;;;;;;;;;;;29.48;36.38;101430.91;5092540;28;20502;-66
2021/06/09 08:06:16;;;;;;;;;;;;;;;29.83;37.98;101435.81;5092362;28;19950;-67
2021/06/09 08:08:44;;;;;;;;;;;;;;;29.36;37.17;101435.56;5091592;28;20399;-67
2021/06/09 08:11:11;;;;;;;;;;;;;;;29.14;37.99;101433.19;5092581;28;19977;-67
2021/06/09 08:13:37;;;;;;;;;;;;;;;29.46;37.60;101427.47;5092836;28;19931;-67
2021/06/09 08:16:10;;;;;;;;;;;;;;;29.93;38.48;101437.22;5092604;28;20022;-67
2021/06/09 08:18:35;;;;;;;;;;;;;;;29.93;36.11;101449.28;5092491;28;19947;-67
2021/06/09 08:21:06;;;;;;;;;;;;;;;30.04;35.16;101425.22;5093060;28;19928;-67
2021/06/09 08:23:32;;;;;;;;;;;;;;;30.47;34.85;101426.09;5091939;28;19970;-67
2021/06/09 08:25:58;;;;;;;;;;;;;;;30.26;33.52;101444.28;5092448;28;20227;-67
2021/06/09 08:28:26;;;;;;;;;;;;;;;30.19;35.63;101442.41;5092573;28;20026;-65
2021/06/09 08:30:51;;;;;;;;;;;;;;;30.51;34.32;101436.56;5092151;28;19967;-64
2021/06/09 08:33:17;;;;;;;;;;;;;;;30.89;34.53;101440.00;5092297;28;20349;-65
2021/06/09 08:35:43;;;;;;;;;;;;;;;30.26;34.42;101438.66;5092501;28;19924;-74
2021/06/09 08:38:09;;;;;;;;;;;;;;;30.45;35.80;101440.31;5091400;28;19966;-73
2021/06/09 08:40:35;;;;;;;;;;;;;;;29.76;33.53;101443.44;5091945;28;19947;-74
2021/06/09 08:43:01;;;;;;;;;;;;;;;30.10;34.27;101438.25;5091744;28;19935;-73
2021/06/09 08:45:29;;;;;;;;;;;;;;;30.10;35.61;101438.25;5092480;28;19924;-73
2021/06/09 08:47:56;;;;;;;;;;;;;;;30.18;35.48;101442.66;5092182;28;21337;-75
2021/06/09 08:50:24;;;;;;;;;;;;;;;30.25;33.64;101436.97;5091885;28;19932;-74
2021/06/09 08:52:51;;;;;;;;;;;;;;;30.33;33.53;101433.81;5092151;28;19968;-73
2021/06/09 08:55:18;;;;;;;;;;;;;;;30.68;32.44;101438.63;5091292;28;19931;-73
2021/06/09 08:57:44;;;;;;;;;;;;;;;31.28;34.59;101431.97;5091807;28;19946;-74
2021/06/09 09:00:10;;;;;;;;;;;;;;;31.50;31.84;101423.72;5092063;28;19924;-69
2021/06/09 09:02:38;;;;;;;;;;;;;;;31.32;32.49;101427.56;5091969;28;19931;-70
2021/06/09 09:05:06;;;;;;;;;;;;;;;31.03;31.72;101423.78;5091294;28;19938;-72
2021/06/09 09:07:31;;;;;;;;;;;;;;;30.94;33.19;101422.47;5091684;28;19984;-71
2021/06/09 09:09:57;;;;;;;;;;;;;;;30.98;31.45;101429.28;5091031;28;19982;-71
2021/06/09 09:12:23;;;;;;;;;;;;;;;30.60;34.70;101439.00;5091735;28;19924;-70
2021/06/09 09:14:49;;;;;;;;;;;;;;;31.14;31.17;101428.56;5090011;28;19932;-69
2021/06/09 09:17:15;;;;;;;;;;;;;;;30.41;32.30;101430.66;5090225;28;19924;-70
2021/06/09 09:19:43;;;;;;;;;;;;;;;30.40;32.96;101431.78;5090500;28;20467;-73
2021/06/09 09:22:09;;;;;;;;;;;;;;;29.75;33.08;101432.50;5092030;28;20415;-72
2021/06/09 09:24:41;;;;;;;;;;;;;;;30.20;35.48;101434.91;5090101;28;20366;-72
2021/06/09 09:27:08;;;;;;;;;;;;;;;30.63;35.13;101428.16;5091533;28;19924;-74
2021/06/09 09:29:33;;;;;;;;;;;;;;;31.17;31.76;101427.22;5091389;28;20357;-75
2021/06/09 09:32:03;;;;;;;;;;;;;;;31.37;30.96;101432.41;5090918;28;19942;-74
2021/06/09 09:34:33;;;;;;;;;;;;;;;31.74;31.62;101436.88;5090826;28;19924;-74
2021/06/09 09:37:05;;;;;;;;;;;;;;;32.04;29.29;101430.97;5090432;28;19924;-74
2021/06/09 09:39:31;;;;;;;;;;;;;;;31.87;30.87;101429.00;5087282;28;19925;-76
2021/06/09 09:41:57;;;;;;;;;;;;;;;32.27;28.84;101431.97;5090315;28;20395;-74
2021/06/09 09:44:22;;;;;;;;;;;;;;;32.55;28.65;101426.31;5090070;28;19925;-70
2021/06/09 09:46:53;;;;;;;;;;;;;;;32.22;29.48;101435.56;5090676;28;19942;-65
2021/06/09 09:49:19;;;;;;;;;;;;;;;32.41;28.62;101436.19;5090754;28;19924;-65
2021/06/09 09:52:00;;;;;;;;;;;;;;;32.02;30.86;101422.81;5090788;28;20015;-66
2021/06/09 09:54:29;;;;;;;;;;;;;;;32.54;29.08;101420.94;5089484;28;19924;-65
2021/06/09 09:56:56;;;;;;;;;;;;;;;33.07;29.49;101424.28;5089674;28;19925;-73
2021/06/09 09:59:25;;;;;;;;;;;;;;;32.76;29.24;101421.03;5088265;28;19978;-73
2021/06/09 10:01:52;;;;;;;;;;;;;;;33.11;27.51;101421.81;5090291;28;19931;-73
2021/06/09 10:04:19;;;;;;;;;;;;;;;33.31;27.71;101421.28;5090751;28;19932;-74
2021/06/09 10:06:45;;;;;;;;;;;;;;;33.22;26.10;101412.44;5089699;28;19924;-74
2021/06/09 10:09:13;;;;;;;;;;;;;;;33.42;28.03;101411.00;5087172;28;19924;-74
2021/06/09 10:11:42;;;;;;;;;;;;;;;33.46;26.55;101409.38;5089415;28;19928;-74
2021/06/09 10:14:14;;;;;;;;;;;;;;;33.66;27.33;101418.09;5091070;28;19924;-74
2021/06/09 10:16:41;;;;;;;;;;;;;;;34.20;28.97;101422.06;5090321;28;20260;-73
2021/06/09 10:19:08;;;;;;;;;;;;;;;33.56;26.84;101414.31;5091163;28;19931;-74
2021/06/09 10:21:34;;;;;;;;;;;;;;;33.58;28.50;101414.88;5092762;28;19966;-74
2021/06/09 10:24:02;;;;;;;;;;;;;;;33.14;28.52;101415.69;5094295;28;19978;-75
2021/06/09 10:26:28;;;;;;;;;;;;;;;31.60;28.40;101414.69;5094689;28;20486;-75
2021/06/09 10:28:59;;;;;;;;;;;;;;;32.20;28.80;101415.31;5094706;28;19924;-75
2021/06/09 10:31:25;;;;;;;;;;;;;;;31.27;28.13;101409.75;5095123;28;19950;-74
2021/06/09 10:33:51;;;;;;;;;;;;;;;31.48;29.87;101413.84;5094218;28;19923;-74
2021/06/09 10:36:17;;;;;;;;;;;;;;;31.97;29.98;101413.44;5094914;28;19925;-75
2021/06/09 10:38:44;;;;;;;;;;;;;;;32.22;27.96;101410.28;5094144;28;19963;-73
2021/06/09 10:41:10;;;;;;;;;;;;;;;33.09;28.30;101410.84;5094383;28;20447;-74
2021/06/09 10:43:36;;;;;;;;;;;;;;;33.30;27.39;101406.38;5094385;28;20391;-75
2021/06/09 10:46:04;;;;;;;;;;;;;;;32.70;27.69;101406.03;5094956;28;20031;-75
2021/06/09 10:48:30;;;;;;;;;;;;;;;32.99;29.18;101411.56;5094091;28;19924;-75
2021/06/09 10:50:55;;;;;;;;;;;;;;;33.05;28.45;101399.25;5092292;28;19970;-74
2021/06/09 10:53:21;;;;;;;;;;;;;;;32.92;28.75;101402.44;5092427;28;20073;-75
2021/06/09 10:55:47;;;;;;;;;;;;;;;33.12;26.52;101389.78;5093051;28;19924;-75
2021/06/09 10:58:13;;;;;;;;;;;;;;;32.72;26.75;101388.94;5094355;28;19932;-75
2021/06/09 11:00:40;;;;;;;;;;;;;;;32.08;27.56;101389.22;5094292;28;19928;-75
2021/06/09 11:03:07;;;;;;;;;;;;;;;32.56;28.02;101387.81;5092671;28;19953;-75
2021/06/09 11:05:35;;;;;;;;;;;;;;;32.85;28.65;101379.31;5092877;28;20349;-75
2021/06/09 11:08:02;;;;;;;;;;;;;;;33.35;28.41;101385.91;5080050;28;19928;-75
2021/06/09 11:10:42;;;;;;;;;;;;;;;33.52;27.07;101383.00;5093512;28;20137;-75
2021/06/09 11:13:09;;;;;;;;;;;;;;;33.41;26.89;101376.41;5092384;28;19947;-75
2021/06/09 11:15:35;;;;;;;;;;;;;;;33.45;29.70;101374.78;5093332;28;19924;-75
2021/06/09 11:18:12;;;;;;;;;;;;;;;33.63;26.92;101375.53;5093029;28;19924;-75
2021/06/09 11:20:39;;;;;;;;;;;;;;;33.85;26.68;101365.13;5091816;28;19924;-75
2021/06/09 11:23:06;;;;;;;;;;;;;;;34.07;26.21;101367.00;5093808;28;19990;-75
2021/06/09 11:25:34;;;;;;;;;;;;;;;33.58;25.62;101359.47;5091803;28;20007;-74
2021/06/09 11:28:02;;;;;;;;;;;;;;;32.87;27.38;101357.41;5093502;28;19981;-74
2021/06/09 11:30:38;;;;;;;;;;;;;;;32.52;28.85;101356.59;5092668;28;19947;-76
2021/06/09 11:33:05;;;;;;;;;;;;;;;32.38;28.04;101364.50;5090981;28;19981;-74
2021/06/09 11:35:42;;;;;;;;;;;;;;;32.44;27.12;101354.19;5093917;28;19924;-73
2021/06/09 11:38:18;;;;;;;;;;;;;;;32.29;27.62;101351.16;5091438;28;19924;-73
2021/06/09 11:40:48;;;;;;;;;;;;;;;32.59;27.91;101347.13;5091451;28;19932;-74
2021/06/09 11:43:17;;;;;;;;;;;;;;;33.20;30.40;101352.78;5093156;28;20399;-73
2021/06/09 11:45:49;;;;;;;;;;;;;;;32.92;26.72;101349.03;5091584;28;19931;-73
2021/06/09 11:48:15;;;;;;;;;;;;;;;31.45;29.43;101356.31;5093339;28;20283;-73
2021/06/09 11:50:43;;;;;;;;;;;;;;;30.14;31.51;101352.72;5091490;28;20011;-74
2021/06/09 11:53:13;;;;;;;;;;;;;;;29.47;32.92;101350.03;5093018;28;19924;-74
2021/06/09 11:55:39;;;;;;;;;;;;;;;29.02;32.30;101351.22;5087202;28;19927;-74
2021/06/09 11:58:08;;;;;;;;;;;;;;;29.25;33.73;101349.66;5092675;28;19967;-75
2021/06/09 12:00:34;;;;;;;;;;;;;;;29.12;32.50;101345.09;5093583;28;19931;-74
2021/06/09 12:03:19;;;;;;;;;;;;;;;28.30;34.19;101343.31;5092993;28;19924;-73
2021/06/09 12:05:47;;;;;;;;;;;;;;;27.91;33.35;101335.00;5093364;28;19963;-74
2021/06/09 12:08:13;;;;;;;;;;;;;;;27.67;34.64;101336.69;5093181;28;19932;-74
2021/06/09 12:10:39;;;;;;;;;;;;;;;27.35;36.12;101339.38;5092859;28;19928;-74
2021/06/09 12:13:05;;;;;;;;;;;;;;;28.28;36.87;101335.19;5092910;28;20308;-73
2021/06/09 12:15:31;;;;;;;;;;;;;;;29.21;32.82;101336.16;5093026;28;19924;-74
2021/06/09 12:17:57;;;;;;;;;;;;;;;30.58;31.61;101323.56;5092823;28;20327;-74
2021/06/09 12:20:23;;;;;;;;;;;;;;;31.34;29.70;101327.19;5093038;28;19924;-75
2021/06/09 12:22:51;;;;;;;;;;;;;;;31.38;29.22;101322.78;5093179;28;20030;-74
2021/06/09 12:25:18;;;;;;;;;;;;;;;31.11;29.38;101311.31;5091830;28;20388;-75
2021/06/09 12:27:58;;;;;;;;;;;;;;;31.57;30.80;101310.53;5092844;28;19969;-75
2021/06/09 12:30:23;;;;;;;;;;;;;;;31.34;31.45;101317.94;5091280;28;19924;-75
2021/06/09 12:32:50;;;;;;;;;;;;;;;31.39;29.87;101315.25;5091479;28;19946;-76